Opasatika, Canada
Current Conditions -  °F | °C
As of 4:00 PM on Friday 28 Nov 2014 (Local Time) from CYYU Reporting Station
Scattered Clouds Scattered Clouds  
Wind Chill: -4°   Ceiling: Unl
Heat Index:   Visibility: 15mi
Dew Point:   Wind: 5mph
Humidity: 85%   Direction: 210°SSW
Pressure: 30.06"   Gusts: NA
Location:  49.53°N, 82.87°W
Report Text: CYYU 282100Z 21004KT 15SM FEW030 SCT120 M15/M17 A3006 RMK SC1AC3 SLP206
Loading
Personal Weather Stations






























Interactive Weather Map New forecast layout! Learn more

10-Day Weather Forecast

Advertisements
Track Severe Weather on mobile